Virginia Peak (RGX), Nevada Weather observations

 Day   Time    Ave.   Ave.  Ave.  Vector  Max.   Total    Solar  
  of    of     Air    Rel.  Wind   Wind   Wind  Precip.   Rad.   
Year   Day     Temp.  Hum.  Speed  Dir.   Gust                   
2014   (PST)    F      %     mph   deg.    mph    in.     W/m2  
----------------------------------------------------------------
 110    1:15   34.0    41   22.8   292    30.0   999.00     999
 110    1:30   33.0    47   10.8   333    23.4   999.00     999
 110    1:45   35.0    44   19.2   289    21.6   999.00     999
 110    2:00   34.0    47   17.4   287    20.4   999.00     999
 110    2:15   35.0    47   10.2   314    19.2   999.00     999
 110    2:30   34.0    55   14.2   296    15.0   999.00     999
 110    2:45   34.0    58   14.4   307    17.8   999.00     999
 110    3:00  999.0   999   13.8   306   999.0   999.00     999
 110    3:15   34.0    58    9.6   319    13.8   999.00     999
 110    3:30   33.0    64    7.8   999    12.0   999.00     999
 110    3:45   33.0    72   10.8   335    11.4   999.00     999
 110    4:00  999.0   999  999.0   999   999.0   999.00     999
 110    4:15   36.0    36    7.2   311    10.8   999.00     999
 110    4:30   37.0    34    3.0   298     7.8   999.00     999
 110    4:45   37.0    36    1.2    22     4.2   999.00     999
 110    5:00   37.0    35    3.6    32     3.6   999.00     999
 110    5:15   36.0    36    0.0   323     6.0   999.00     999
 110    5:30   37.0    41    1.8    93     2.4   999.00     999
 110    5:45   37.0    35    0.6    46     1.8   999.00     999
 110    6:00   37.0    44    4.2    84     6.0   999.00     999
 110    6:15   39.0    51    4.2    94     4.2   999.00     999
 110    6:30   40.0    51    1.8   115     4.2   999.00     999
 110    6:45  999.0   999    0.0   309     6.0   999.00     999
 110    7:00   40.0    46    0.0   298     5.4   999.00     999
 110    7:15   42.0    49    2.4   159     2.4   999.00     999
 110    7:30   42.0    61    7.2    72   111.8   999.00     999
 110    7:45   42.0    56    6.0    39     7.8   999.00     999
 110    8:00   43.0    56    4.8    38     5.4   999.00     999
 110    8:15   44.0   999    6.0    66     9.0   999.00     999
 110    8:30   44.0   999    6.6    54     6.6   999.00     999
 110    8:45   42.0    58    5.4    60     9.6   999.00     999
 110    9:00   42.0    60    9.0    43    10.8   999.00     999
 110    9:15   43.0    58    6.0    40    10.2   999.00     999
 110    9:30   44.0    55    3.6    53    10.8   999.00     999
 110    9:45   46.0    51    2.4   303     7.2   999.00     999
 110   10:00   45.0    50    3.0   303    11.4   999.00     999
 110   10:15  999.0    48    3.6    44     9.6   999.00     999
 110   10:30  999.0    47    8.4     9    12.0   999.00     999
 110   10:45   46.0    47    2.8   193    12.0   999.00     999
 110   11:00   46.0    47    7.2   135     8.4   999.00     999
 110   11:15   47.0    46   11.4    88    12.6   999.00     999
 110   11:30   47.0    47    1.2   111    12.0   999.00     999
 110   11:45   46.0    48    3.6   236    15.0   999.00     999
 110   12:00   47.0    47    4.8   130    11.4   999.00     999
 110   12:15   49.0   999    3.0    97    10.8   999.00     999
 110   12:30   49.0    46    6.0    90     9.0   999.00     999
 110   12:45   49.0    44    7.2    75    12.6   999.00     999
 110   13:00   48.0    45    9.0    75    13.8   999.00     999
 110   13:15   49.0    43    4.2   278    10.2   999.00     999
 110   13:30  999.0   999  999.0   999   999.0   999.00     999
 110   13:45   50.0    43    5.4     1    15.0   999.00     999
 110   14:00   50.0    42    7.2   152    10.8   999.00     999
 110   14:15   52.0   999    7.8    31    16.8   999.00     999
 110   14:30  999.0    41    3.6    33    10.8   999.00     999
 110   14:45   51.0    39    6.6    54   999.0   999.00     999
 110   15:00   51.0    32    2.4   311    10.8   999.00     999
 110   15:15   52.0    28    9.6   283    13.2   999.00     999
 110   15:30   51.0    33    7.6    38    14.4   999.00     999
 110   15:45   50.0    30    7.2    67    11.4   999.00     999
 110   16:00   49.0    26    8.4    74    15.0   999.00     999
 110   16:15   49.0    27    6.0    53    11.4   999.00     999
 110   16:30   50.0    28    4.2    25     8.4   999.00     999
 110   16:45   50.0    28    4.2    51     7.2   999.00     999
 110   17:00   49.0    30    5.4    65     7.2   999.00     999
 110   17:15   49.0    30    3.6   330     8.4   999.00     999
 110   17:30   49.0    31    6.6   339     7.8   999.00     999
 110   17:45   49.0    29    4.8    43     7.2   999.00     999
 110   18:00  999.0    31    2.4   336     6.0   999.00     999
 110   18:15   26.0    31    5.4    21   999.0   999.00     999
 110   18:30   46.0    30    3.6    32     6.0   999.00     999
 110   18:45   46.0    87  999.0    41    11.8   999.00     999
 110   19:00   47.0    27   18.2    43   999.0   999.00     999
 110   19:15   46.0   999    1.6    40     5.4   999.00     999
 110   19:30   46.0    25    4.2    51     6.0   999.00     999
 110   19:45   46.0    29    4.2    12     5.4   999.00     999
 110   20:00  999.0    29    6.0   999   999.0   999.00     999
 110   20:15   45.0    30    7.2    35     8.4   999.00     999
 110   20:30   45.0    29    9.0    54     9.6   999.00     999
 110   20:45   45.0    29    7.8    48     9.0   999.00     999
 110   21:00   45.0    29    6.6    35     7.8   999.00     999
 110   21:15   45.0    28    4.8    33     7.2   999.00     999
 110   21:30   45.0   999    4.8   999    12.4   999.00     999
 110   21:45   45.0    25   10.8    75    11.4   999.00     999
 110   22:00   44.0    27   11.4    67    12.0   999.00     999
 110   22:15   44.0    25   10.8    76   999.0   999.00     999
 110   22:30   44.0    23    9.6    81    12.0   999.00     999
 110   22:45   44.0    23  999.0   105    10.2   999.00     999
 110   23:00  999.0    25    9.0   102    12.6   999.00     999
 110   23:15  999.0   999  999.0    96    13.2   999.00     999
 110   23:30  999.0   999  999.0   108    12.6   999.00     999
 110   23:45  999.0   999  999.0   115    12.0   999.00     999
 111    0:00  999.0   999  999.0   127    11.4   999.00     999
 111    0:15   44.0    25   11.4   121    12.6   999.00     999
 111    0:30   43.0    25    8.4   122   999.0   999.00     999
 111    0:45   43.0    26    9.6   124    11.4   999.00     999
 111    1:00   44.0    25    9.6   126    10.8   999.00     999

Return to Virginia Peak (RGX) graphs page.


Western Regional Climate Center,wrcc@dri.edu